New Mingzhou 16 — VRLS3 — position and weather

sailwx.info

Track history (hours):
 
Tides and Currents Weather Stations Pressure Air Temp Water Temp Dewpoint Dewpoint Depression Visibility Wind Speed Wind Dir Waves Ship Positions

New Mingzhou 16

Last reported at 2018-Jun-23 14:06 UTC. Time now 2018-Jun-24 14:31 UTC.
Position N 33°41' E 135°11'.

Length 143 m; draft 7 m.

Type: Ship (hazmat cat A). MMSI: 477224100.

Date/timePositionNaut miles runAvg speedWind from/ knotsBaromVisibWave heightAir tempDewpointWater temp
2018-Jun-23 14:06N 33°41' E 135°11'216.3
2018-Jun-23 13:59N 33°43' E 135°09'816.4
2018-Jun-23 13:31N 33°49' E 135°03'816.0
2018-Jun-23 13:01N 33°56' E 134°59'816.5
2018-Jun-23 12:31N 34°05' E 134°59'816.7
2018-Jun-23 12:01N 34°13' E 134°59'815.8
2018-Jun-23 11:31N 34°21' E 135°00'815.8
2018-Jun-23 11:01N 34°27' E 135°06'816.2
2018-Jun-23 10:31N 34°33' E 135°13'714.0
2018-Jun-23 10:00N 34°40' E 135°15'1 2.1
2018-Jun-23 09:25N 34°41' E 135°16'0 0.0
2018-Jun-23 09:00N 34°41' E 135°16'0 0.0
2018-Jun-23 08:30N 34°41' E 135°16'0 0.0
2018-Jun-23 08:00N 34°41' E 135°16'0 0.0
2018-Jun-23 07:30N 34°41' E 135°16'0 0.0
2018-Jun-23 07:00N 34°41' E 135°16'0 0.0
2018-Jun-23 06:30N 34°41' E 135°16'0 0.0
2018-Jun-23 06:00N 34°41' E 135°16'0 0.0
2018-Jun-23 05:30N 34°41' E 135°16'0 0.0
2018-Jun-23 05:00N 34°41' E 135°16'0 0.0
2018-Jun-23 04:30N 34°41' E 135°16'0 0.0
2018-Jun-23 04:00N 34°41' E 135°16'0 0.0
2018-Jun-23 03:30N 34°41' E 135°16'0 0.0
2018-Jun-23 03:00N 34°41' E 135°16'0 0.0
2018-Jun-23 02:30N 34°41' E 135°16'0 0.0
2018-Jun-23 02:00N 34°41' E 135°16'0 0.0
2018-Jun-23 01:30N 34°41' E 135°16'0 0.0
2018-Jun-23 01:00N 34°41' E 135°16'0 0.0
2018-Jun-23 00:30N 34°41' E 135°16'0 0.5
2018-Jun-23 00:00N 34°40' E 135°16'2 3.6
2018-Jun-22 23:30N 34°39' E 135°16'1 2.3
2018-Jun-22 22:59N 34°38' E 135°17'0 0.5
2018-Jun-22 22:30N 34°38' E 135°18'2 3.5
2018-Jun-22 22:00N 34°38' E 135°20'5 9.4
2018-Jun-22 21:30N 34°39' E 135°26'0 0.8
2018-Jun-22 20:58N 34°39' E 135°26'0 0.0
2018-Jun-22 20:28N 34°39' E 135°26'0 0.0
2018-Jun-22 19:52N 34°39' E 135°26'0 0.0
2018-Jun-22 19:28N 34°39' E 135°26'0 0.0
2018-Jun-22 18:58N 34°39' E 135°26'0 0.0
2018-Jun-22 18:28N 34°39' E 135°26'0 0.0
2018-Jun-22 17:58N 34°39' E 135°26'0 0.0
2018-Jun-22 17:28N 34°39' E 135°26'0 0.0
2018-Jun-22 16:58N 34°39' E 135°26'0 0.0
2018-Jun-22 16:22N 34°39' E 135°26'0 0.1
2018-Jun-22 15:58N 34°39' E 135°26'0 0.1
2018-Jun-22 15:28N 34°39' E 135°26'0 0.0
2018-Jun-22 14:58N 34°39' E 135°26'0 0.0
2018-Jun-22 14:28N 34°39' E 135°26'0 0.0
2018-Jun-22 13:46N 34°39' E 135°26'0 0.0
2018-Jun-22 13:28N 34°39' E 135°26'0 0.0
2018-Jun-22 12:58N 34°39' E 135°26'0 0.0
2018-Jun-22 12:22N 34°39' E 135°26'0 0.0
2018-Jun-22 11:58N 34°39' E 135°26'0 0.0
2018-Jun-22 11:28N 34°39' E 135°26'0 0.0
2018-Jun-22 10:58N 34°39' E 135°26'0 0.0
2018-Jun-22 10:28N 34°39' E 135°26'0 0.0
2018-Jun-22 09:59N 34°39' E 135°26'1 2.6
2018-Jun-22 09:30N 34°39' E 135°24'5 9.5
2018-Jun-22 09:01N 34°36' E 135°20'815.9
2018-Jun-22 08:30N 34°35' E 135°10'714.8
2018-Jun-22 08:00N 34°37' E 135°01'714.1
2018-Jun-22 07:30N 34°35' E 134°53'814.9
2018-Jun-22 06:59N 34°32' E 134°44'815.7
2018-Jun-22 06:30N 34°29' E 134°36'815.9
2018-Jun-22 06:00N 34°26' E 134°27'815.6
2018-Jun-22 05:30N 34°24' E 134°18'  
2018-Jun-16 19:27N 30°30' E 121°43'  
2018-Jun-14 04:13N 35°03' E 139°37'417.4
2018-Jun-14 04:00N 35°05' E 139°40'816.7
2018-Jun-14 03:30N 35°12' E 139°46'612.2
2018-Jun-14 03:00N 35°18' E 139°44'612.7
2018-Jun-14 02:31N 35°24' E 139°43'3 6.8
2018-Jun-14 02:00N 35°28' E 139°42'0 0.0
2018-Jun-14 01:30N 35°28' E 139°42'0 0.0
2018-Jun-14 01:00N 35°28' E 139°42'0 0.0
2018-Jun-14 00:30N 35°28' E 139°42'0 0.0
2018-Jun-14 00:00N 35°28' E 139°42'0 0.0
2018-Jun-13 23:30N 35°28' E 139°42'0 0.0
2018-Jun-13 23:00N 35°28' E 139°42'1 2.3
2018-Jun-13 22:30N 35°27' E 139°43'611.1
2018-Jun-13 22:00N 35°29' E 139°50'611.0
2018-Jun-13 21:28N 35°34' E 139°48'3 6.6
2018-Jun-13 21:00N 35°37' E 139°46'0 0.0
2018-Jun-13 20:28N 35°37' E 139°46'0 0.0
2018-Jun-13 19:52N 35°37' E 139°46'0 0.0
2018-Jun-13 19:28N 35°37' E 139°46'0 0.0
2018-Jun-13 18:58N 35°37' E 139°46'0 0.0
2018-Jun-13 18:22N 35°37' E 139°46'0 0.0
2018-Jun-13 17:58N 35°37' E 139°46'0 0.0
2018-Jun-13 17:28N 35°37' E 139°46'0 0.0
2018-Jun-13 16:58N 35°37' E 139°46'0 0.0
2018-Jun-13 16:28N 35°37' E 139°46'0 0.0
2018-Jun-13 15:58N 35°37' E 139°46'0 0.0
2018-Jun-13 15:28N 35°37' E 139°46'0 0.0
2018-Jun-13 14:40N 35°37' E 139°46'0 0.0
2018-Jun-13 14:28N 35°37' E 139°46'  
Track history (hours):
 
Tides and Currents Weather Stations Pressure Air Temp Water Temp Dewpoint Dewpoint Depression Visibility Wind Speed Wind Dir Waves Ship Positions

New Mingzhou 16

Last reported at 2018-Jun-23 14:06 UTC. Time now 2018-Jun-24 14:31 UTC.
Position N 33°41' E 135°11'.

Length 143 m; draft 7 m.

Type: Ship (hazmat cat A). MMSI: 477224100.

Date/timePositionNaut miles runAvg speedWind from/ knotsBaromVisibWave heightAir tempDewpointWater temp
2018-Jun-23 14:06N 33°41' E 135°11'216.3
2018-Jun-23 13:59N 33°43' E 135°09'816.4
2018-Jun-23 13:31N 33°49' E 135°03'816.0
2018-Jun-23 13:01N 33°56' E 134°59'816.5
2018-Jun-23 12:31N 34°05' E 134°59'816.7
2018-Jun-23 12:01N 34°13' E 134°59'815.8
2018-Jun-23 11:31N 34°21' E 135°00'815.8
2018-Jun-23 11:01N 34°27' E 135°06'816.2
2018-Jun-23 10:31N 34°33' E 135°13'714.0
2018-Jun-23 10:00N 34°40' E 135°15'1 2.1
2018-Jun-23 09:25N 34°41' E 135°16'0 0.0
2018-Jun-23 09:00N 34°41' E 135°16'0 0.0
2018-Jun-23 08:30N 34°41' E 135°16'0 0.0
2018-Jun-23 08:00N 34°41' E 135°16'0 0.0
2018-Jun-23 07:30N 34°41' E 135°16'0 0.0
2018-Jun-23 07:00N 34°41' E 135°16'0 0.0
2018-Jun-23 06:30N 34°41' E 135°16'0 0.0
2018-Jun-23 06:00N 34°41' E 135°16'0 0.0
2018-Jun-23 05:30N 34°41' E 135°16'0 0.0
2018-Jun-23 05:00N 34°41' E 135°16'0 0.0
2018-Jun-23 04:30N 34°41' E 135°16'0 0.0
2018-Jun-23 04:00N 34°41' E 135°16'0 0.0
2018-Jun-23 03:30N 34°41' E 135°16'0 0.0
2018-Jun-23 03:00N 34°41' E 135°16'0 0.0
2018-Jun-23 02:30N 34°41' E 135°16'0 0.0
2018-Jun-23 02:00N 34°41' E 135°16'0 0.0
2018-Jun-23 01:30N 34°41' E 135°16'0 0.0
2018-Jun-23 01:00N 34°41' E 135°16'0 0.0
2018-Jun-23 00:30N 34°41' E 135°16'0 0.5
2018-Jun-23 00:00N 34°40' E 135°16'2 3.6
2018-Jun-22 23:30N 34°39' E 135°16'1 2.3
2018-Jun-22 22:59N 34°38' E 135°17'0 0.5
2018-Jun-22 22:30N 34°38' E 135°18'2 3.5
2018-Jun-22 22:00N 34°38' E 135°20'5 9.4
2018-Jun-22 21:30N 34°39' E 135°26'0 0.8
2018-Jun-22 20:58N 34°39' E 135°26'0 0.0
2018-Jun-22 20:28N 34°39' E 135°26'0 0.0
2018-Jun-22 19:52N 34°39' E 135°26'0 0.0
2018-Jun-22 19:28N 34°39' E 135°26'0 0.0
2018-Jun-22 18:58N 34°39' E 135°26'0 0.0
2018-Jun-22 18:28N 34°39' E 135°26'0 0.0
2018-Jun-22 17:58N 34°39' E 135°26'0 0.0
2018-Jun-22 17:28N 34°39' E 135°26'0 0.0
2018-Jun-22 16:58N 34°39' E 135°26'0 0.0
2018-Jun-22 16:22N 34°39' E 135°26'0 0.1
2018-Jun-22 15:58N 34°39' E 135°26'0 0.1
2018-Jun-22 15:28N 34°39' E 135°26'0 0.0
2018-Jun-22 14:58N 34°39' E 135°26'0 0.0
2018-Jun-22 14:28N 34°39' E 135°26'0 0.0
2018-Jun-22 13:46N 34°39' E 135°26'0 0.0
2018-Jun-22 13:28N 34°39' E 135°26'0 0.0
2018-Jun-22 12:58N 34°39' E 135°26'0 0.0
2018-Jun-22 12:22N 34°39' E 135°26'0 0.0
2018-Jun-22 11:58N 34°39' E 135°26'0 0.0
2018-Jun-22 11:28N 34°39' E 135°26'0 0.0
2018-Jun-22 10:58N 34°39' E 135°26'0 0.0
2018-Jun-22 10:28N 34°39' E 135°26'0 0.0
2018-Jun-22 09:59N 34°39' E 135°26'1 2.6
2018-Jun-22 09:30N 34°39' E 135°24'5 9.5
2018-Jun-22 09:01N 34°36' E 135°20'815.9
2018-Jun-22 08:30N 34°35' E 135°10'714.8
2018-Jun-22 08:00N 34°37' E 135°01'714.1
2018-Jun-22 07:30N 34°35' E 134°53'814.9
2018-Jun-22 06:59N 34°32' E 134°44'815.7
2018-Jun-22 06:30N 34°29' E 134°36'815.9
2018-Jun-22 06:00N 34°26' E 134°27'815.6
2018-Jun-22 05:30N 34°24' E 134°18'  
2018-Jun-16 19:27N 30°30' E 121°43'  
2018-Jun-14 04:13N 35°03' E 139°37'417.4
2018-Jun-14 04:00N 35°05' E 139°40'816.7
2018-Jun-14 03:30N 35°12' E 139°46'612.2
2018-Jun-14 03:00N 35°18' E 139°44'612.7
2018-Jun-14 02:31N 35°24' E 139°43'3 6.8
2018-Jun-14 02:00N 35°28' E 139°42'0 0.0
2018-Jun-14 01:30N 35°28' E 139°42'0 0.0
2018-Jun-14 01:00N 35°28' E 139°42'0 0.0
2018-Jun-14 00:30N 35°28' E 139°42'0 0.0
2018-Jun-14 00:00N 35°28' E 139°42'0 0.0
2018-Jun-13 23:30N 35°28' E 139°42'0 0.0
2018-Jun-13 23:00N 35°28' E 139°42'1 2.3
2018-Jun-13 22:30N 35°27' E 139°43'611.1
2018-Jun-13 22:00N 35°29' E 139°50'611.0
2018-Jun-13 21:28N 35°34' E 139°48'3 6.6
2018-Jun-13 21:00N 35°37' E 139°46'0 0.0
2018-Jun-13 20:28N 35°37' E 139°46'0 0.0
2018-Jun-13 19:52N 35°37' E 139°46'0 0.0
2018-Jun-13 19:28N 35°37' E 139°46'0 0.0
2018-Jun-13 18:58N 35°37' E 139°46'0 0.0
2018-Jun-13 18:22N 35°37' E 139°46'0 0.0
2018-Jun-13 17:58N 35°37' E 139°46'0 0.0
2018-Jun-13 17:28N 35°37' E 139°46'0 0.0
2018-Jun-13 16:58N 35°37' E 139°46'0 0.0
2018-Jun-13 16:28N 35°37' E 139°46'0 0.0
2018-Jun-13 15:58N 35°37' E 139°46'0 0.0
2018-Jun-13 15:28N 35°37' E 139°46'0 0.0
2018-Jun-13 14:40N 35°37' E 139°46'0 0.0
2018-Jun-13 14:28N 35°37' E 139°46'  

Dump ship's entire track history